createdAt,value
2022-10-31T00:01:29.675Z,38.80
2022-10-31T00:03:57.236Z,37.80
2022-10-31T00:06:24.957Z,38.17
2022-10-31T00:08:54.189Z,35.50
2022-10-31T00:11:21.819Z,33.50
2022-10-31T00:13:51.082Z,32.40
2022-10-31T00:16:19.395Z,35.90
2022-10-31T00:18:49.545Z,34.13
2022-10-31T00:21:17.202Z,33.87
2022-10-31T00:23:44.886Z,29.70
2022-10-31T00:26:12.553Z,31.80
2022-10-31T00:28:40.051Z,30.27
2022-10-31T00:31:09.949Z,31.90
2022-10-31T00:33:38.542Z,30.20
2022-10-31T00:36:07.019Z,29.63
2022-10-31T00:38:34.684Z,31.20
2022-10-31T00:41:02.238Z,29.47
2022-10-31T00:43:29.718Z,28.60
2022-10-31T00:45:57.467Z,29.63
2022-10-31T00:48:27.229Z,27.70
2022-10-31T00:50:55.230Z,28.10
2022-10-31T00:53:23.892Z,29.80
2022-10-31T00:55:51.493Z,27.27
2022-10-31T00:58:19.078Z,28.73
2022-10-31T01:00:51.132Z,28.93
2022-10-31T01:03:19.712Z,28.83
2022-10-31T01:05:56.621Z,27.07
2022-10-31T01:08:24.151Z,27.47
2022-10-31T01:10:59.848Z,28.33
2022-10-31T01:13:27.471Z,28.47
2022-10-31T01:15:55.708Z,28.50
2022-10-31T01:18:23.377Z,27.90
2022-10-31T01:21:00.218Z,28.83
2022-10-31T01:23:28.696Z,27.10
2022-10-31T01:26:07.175Z,28.47
2022-10-31T01:28:35.656Z,27.90
2022-10-31T01:31:03.843Z,27.07
2022-10-31T01:33:31.627Z,27.77
2022-10-31T01:36:01.675Z,27.90
2022-10-31T01:38:29.373Z,28.30
2022-10-31T01:40:56.896Z,27.57
2022-10-31T01:43:24.474Z,26.70
2022-10-31T01:45:54.916Z,28.83
2022-10-31T01:48:26.295Z,28.03
2022-10-31T01:50:55.902Z,28.93
2022-10-31T01:53:26.978Z,28.23
2022-10-31T01:55:55.083Z,27.20
2022-10-31T01:58:24.769Z,27.37
2022-10-31T02:00:56.204Z,29.17
2022-10-31T02:03:24.112Z,26.87
2022-10-31T02:05:52.033Z,27.87
2022-10-31T02:08:27.522Z,28.13
2022-10-31T02:10:55.984Z,26.60
2022-10-31T02:15:55.248Z,27.37
2022-10-31T02:18:23.780Z,27.23
2022-10-31T02:20:57.078Z,26.80
2022-10-31T02:23:43.057Z,25.90
2022-10-31T02:26:21.993Z,27.00
2022-10-31T02:28:59.449Z,27.97
2022-10-31T02:31:33.276Z,27.07
2022-10-31T02:34:03.036Z,27.07
2022-10-31T02:36:34.173Z,26.97
2022-10-31T02:39:04.328Z,27.03
2022-10-31T02:41:44.318Z,26.87
2022-10-31T02:44:17.852Z,26.73
2022-10-31T02:46:50.124Z,26.60
2022-10-31T02:49:24.096Z,26.43
2022-10-31T02:51:53.733Z,26.50
2022-10-31T02:54:23.030Z,26.40
2022-10-31T02:56:55.621Z,26.43
2022-10-31T02:59:23.885Z,25.20
2022-10-31T03:01:59.792Z,27.07
2022-10-31T03:04:46.236Z,25.87
2022-10-31T03:07:22.292Z,25.07
2022-10-31T03:09:54.668Z,25.70
2022-10-31T03:12:28.021Z,26.20
2022-10-31T03:14:58.484Z,25.67
2022-10-31T03:17:29.240Z,25.77
2022-10-31T03:19:57.655Z,25.87
2022-10-31T03:22:30.013Z,23.63
2022-10-31T03:25:00.030Z,24.30
2022-10-31T03:27:28.564Z,23.23
2022-10-31T03:29:57.729Z,23.77
2022-10-31T03:32:26.752Z,22.67
2022-10-31T03:34:58.612Z,22.90
2022-10-31T03:37:27.916Z,23.80
2022-10-31T03:39:56.801Z,22.37
2022-10-31T03:42:26.458Z,22.23
2022-10-31T03:44:55.747Z,22.33
2022-10-31T03:47:23.455Z,22.83
2022-10-31T03:49:51.390Z,21.43
2022-10-31T03:52:26.468Z,21.30
2022-10-31T03:54:59.192Z,21.30
2022-10-31T03:57:35.728Z,20.80
2022-10-31T04:00:06.892Z,21.33
2022-10-31T04:02:48.616Z,21.50
2022-10-31T04:05:17.478Z,21.60
2022-10-31T04:07:48.713Z,20.33
2022-10-31T04:10:17.846Z,20.50
2022-10-31T04:12:47.507Z,19.37
2022-10-31T04:15:21.467Z,19.87
2022-10-31T04:17:49.518Z,19.37
2022-10-31T04:20:19.086Z,20.67
2022-10-31T04:22:48.545Z,20.63
2022-10-31T04:25:16.024Z,19.73
2022-10-31T04:27:43.735Z,20.90
2022-10-31T04:30:11.927Z,21.27
2022-10-31T04:32:41.730Z,22.17
2022-10-31T04:35:09.413Z,20.67
2022-10-31T04:37:37.208Z,20.57
2022-10-31T04:40:06.976Z,21.50
2022-10-31T04:42:43.851Z,21.50
2022-10-31T04:45:15.451Z,20.90
2022-10-31T04:47:46.460Z,20.80
2022-10-31T04:50:13.995Z,21.63
2022-10-31T04:52:41.807Z,21.10
2022-10-31T04:55:12.961Z,19.90
2022-10-31T04:57:47.266Z,20.97
2022-10-31T05:00:16.739Z,20.40
2022-10-31T05:02:46.087Z,21.20
2022-10-31T05:05:14.137Z,20.83
2022-10-31T05:07:42.786Z,21.70
2022-10-31T05:10:12.927Z,21.13
2022-10-31T05:12:47.409Z,21.20
2022-10-31T05:15:35.289Z,21.10
2022-10-31T05:18:21.680Z,22.43
2022-10-31T05:21:11.739Z,22.00
2022-10-31T05:23:48.407Z,21.07
2022-10-31T05:26:19.312Z,21.60
2022-10-31T05:28:48.777Z,21.30
2022-10-31T05:31:17.085Z,23.47
2022-10-31T05:33:44.918Z,21.53
2022-10-31T05:36:31.314Z,22.00
2022-10-31T05:39:05.043Z,23.23
2022-10-31T05:41:42.325Z,22.83
2022-10-31T05:44:16.068Z,21.37
2022-10-31T05:46:55.601Z,21.80
2022-10-31T05:49:32.215Z,22.63
2022-10-31T05:52:19.156Z,23.20
2022-10-31T05:54:54.563Z,22.47
2022-10-31T05:57:23.697Z,21.77
2022-10-31T05:59:55.085Z,22.43
2022-10-31T06:02:24.547Z,22.20
2022-10-31T06:05:12.136Z,22.80
2022-10-31T06:07:40.156Z,22.57
2022-10-31T06:10:09.432Z,23.17
2022-10-31T06:12:39.345Z,22.30
2022-10-31T06:15:23.448Z,21.90
2022-10-31T06:17:59.475Z,22.60
2022-10-31T06:20:28.504Z,23.27
2022-10-31T06:23:02.341Z,22.53
2022-10-31T06:25:32.442Z,22.90
2022-10-31T06:28:01.647Z,21.73
2022-10-31T06:30:43.129Z,21.20
2022-10-31T06:33:11.950Z,22.60
2022-10-31T06:35:47.228Z,22.03
2022-10-31T06:38:14.809Z,22.07
2022-10-31T06:40:43.943Z,22.33
2022-10-31T06:43:39.556Z,22.00
2022-10-31T06:46:35.176Z,21.43
2022-10-31T06:49:26.718Z,21.87
2022-10-31T06:51:56.383Z,21.97
2022-10-31T06:54:24.774Z,21.83
2022-10-31T06:56:52.458Z,22.70
2022-10-31T06:59:22.380Z,22.87
2022-10-31T07:02:11.177Z,22.70
2022-10-31T07:04:40.115Z,23.13
2022-10-31T07:07:09.203Z,24.17
2022-10-31T07:09:38.852Z,22.07
2022-10-31T07:12:07.157Z,22.90
2022-10-31T07:14:40.408Z,21.60
2022-10-31T07:17:08.157Z,20.67
2022-10-31T07:19:40.352Z,20.93
2022-10-31T07:22:07.935Z,21.20
2022-10-31T07:24:36.387Z,21.20
2022-10-31T07:27:23.194Z,21.00
2022-10-31T07:29:52.281Z,21.67
2022-10-31T07:32:19.736Z,22.33
2022-10-31T07:34:53.487Z,20.47
2022-10-31T07:37:29.063Z,20.00
2022-10-31T07:39:58.560Z,19.80
2022-10-31T07:42:26.131Z,19.40
2022-10-31T07:44:57.613Z,20.33
2022-10-31T07:47:44.816Z,18.80
2022-10-31T07:50:34.732Z,19.87
2022-10-31T07:53:31.340Z,18.70
2022-10-31T07:56:12.551Z,20.73
2022-10-31T07:58:42.016Z,17.30
2022-10-31T08:03:53.922Z,19.77
2022-10-31T08:06:40.656Z,21.40
2022-10-31T08:09:26.407Z,19.77
2022-10-31T08:11:55.260Z,22.50
2022-10-31T08:14:23.359Z,22.17
2022-10-31T08:16:55.763Z,20.23
2022-10-31T08:19:29.190Z,21.80
2022-10-31T08:21:57.406Z,20.37
2022-10-31T08:24:24.940Z,24.10
2022-10-31T08:26:54.542Z,22.70
2022-10-31T08:29:22.906Z,23.50
2022-10-31T08:31:51.057Z,23.13
2022-10-31T08:34:38.994Z,24.07
2022-10-31T08:37:33.721Z,23.10
2022-10-31T08:40:01.700Z,25.07
2022-10-31T08:42:34.122Z,22.17
2022-10-31T08:45:02.124Z,22.30
2022-10-31T08:47:31.037Z,24.23
2022-10-31T08:50:00.749Z,24.93
2022-10-31T08:52:51.219Z,26.27
2022-10-31T08:55:16.061Z,24.77
2022-10-31T08:58:03.720Z,23.93
2022-10-31T09:00:40.057Z,24.40
2022-10-31T09:03:15.243Z,22.17
2022-10-31T09:05:45.331Z,21.17
2022-10-31T09:08:16.690Z,23.00
2022-10-31T09:10:47.467Z,23.90
2022-10-31T09:13:19.993Z,23.23
2022-10-31T09:16:26.596Z,21.37
2022-10-31T09:19:10.219Z,20.40
2022-10-31T09:21:39.189Z,21.40
2022-10-31T09:24:07.292Z,22.60
2022-10-31T09:26:35.148Z,20.90
2022-10-31T09:29:11.572Z,21.47
2022-10-31T09:31:44.677Z,21.60
2022-10-31T09:34:28.620Z,21.77
2022-10-31T09:37:04.966Z,21.57
2022-10-31T09:39:35.706Z,22.87
2022-10-31T09:42:18.377Z,21.40
2022-10-31T09:44:51.839Z,21.17
2022-10-31T09:47:39.662Z,22.20
2022-10-31T09:50:31.233Z,23.00
2022-10-31T09:53:16.088Z,21.87
2022-10-31T09:55:45.140Z,23.40
2022-10-31T09:58:17.261Z,23.30
2022-10-31T10:00:46.829Z,25.43
2022-10-31T10:03:22.243Z,23.47
2022-10-31T10:05:56.253Z,25.63
2022-10-31T10:08:37.300Z,24.03
2022-10-31T10:11:30.615Z,24.87
2022-10-31T10:14:18.842Z,23.77
2022-10-31T10:16:55.540Z,22.50
2022-10-31T10:19:30.057Z,23.53
2022-10-31T10:22:03.156Z,23.73
2022-10-31T10:24:35.573Z,23.70
2022-10-31T10:27:07.718Z,23.53
2022-10-31T10:29:38.281Z,24.20
2022-10-31T10:32:10.224Z,24.67
2022-10-31T10:34:41.017Z,25.20
2022-10-31T10:37:14.682Z,25.23
2022-10-31T10:39:44.130Z,25.40
2022-10-31T10:42:31.404Z,25.00
2022-10-31T10:45:17.077Z,25.10
2022-10-31T10:47:45.445Z,24.60
2022-10-31T10:50:17.760Z,23.50
2022-10-31T10:52:52.083Z,22.40
2022-10-31T10:55:26.557Z,22.27
2022-10-31T10:57:58.016Z,22.57
2022-10-31T11:00:26.748Z,25.37
2022-10-31T11:02:54.772Z,23.83
2022-10-31T11:05:26.197Z,24.23
2022-10-31T11:07:55.208Z,79.17
2022-10-31T11:10:22.698Z,25.77
2022-10-31T11:13:01.096Z,49.90
2022-10-31T11:15:29.436Z,70.60
2022-10-31T11:17:57.956Z,24.20
2022-10-31T11:20:31.127Z,28.93
2022-10-31T11:23:18.250Z,35.00
2022-10-31T11:25:53.394Z,34.73
2022-10-31T11:28:21.122Z,25.20
2022-10-31T11:30:50.037Z,24.10
2022-10-31T11:33:19.600Z,25.67
2022-10-31T11:35:48.413Z,27.07
2022-10-31T11:38:21.424Z,33.20
2022-10-31T11:40:56.806Z,31.20
2022-10-31T11:43:25.042Z,23.10
2022-10-31T11:45:52.826Z,24.53
2022-10-31T11:48:21.751Z,24.53
2022-10-31T11:50:50.620Z,24.43
2022-10-31T11:53:19.674Z,23.27
2022-10-31T11:56:06.636Z,23.50
2022-10-31T11:58:34.207Z,25.30
2022-10-31T12:01:01.726Z,24.57
2022-10-31T12:03:35.532Z,24.03
2022-10-31T12:06:05.585Z,25.47
2022-10-31T12:08:33.899Z,24.93
2022-10-31T12:11:06.397Z,25.20
2022-10-31T12:13:35.838Z,23.57
2022-10-31T12:16:07.850Z,24.57
2022-10-31T12:18:43.500Z,24.30
2022-10-31T12:21:17.814Z,24.00
2022-10-31T12:23:50.481Z,24.37
2022-10-31T12:26:23.710Z,23.67
2022-10-31T12:29:00.132Z,22.80
2022-10-31T12:31:35.195Z,24.30
2022-10-31T12:34:13.740Z,25.80
2022-10-31T12:36:49.529Z,26.30
2022-10-31T12:39:31.538Z,29.53
2022-10-31T12:42:04.604Z,30.00
2022-10-31T12:44:47.096Z,39.47
2022-10-31T12:47:24.949Z,51.83
2022-10-31T12:49:56.245Z,32.87
2022-10-31T12:52:33.787Z,52.97
2022-10-31T12:55:08.779Z,38.23
2022-10-31T12:57:40.246Z,43.10
2022-10-31T13:00:13.100Z,73.97
2022-10-31T13:02:42.305Z,43.87
2022-10-31T13:05:14.860Z,33.30
2022-10-31T13:07:45.265Z,29.40
2022-10-31T13:10:18.262Z,30.03
2022-10-31T13:12:48.728Z,63.03
2022-10-31T13:15:18.065Z,50.30
2022-10-31T13:17:47.353Z,37.07
2022-10-31T13:20:20.150Z,28.67
2022-10-31T13:22:49.532Z,28.60
2022-10-31T13:25:17.749Z,39.57
2022-10-31T13:27:50.268Z,34.87
2022-10-31T13:30:19.004Z,31.30
2022-10-31T13:32:49.590Z,31.17
2022-10-31T13:35:20.437Z,29.63
2022-10-31T13:37:54.633Z,30.77
2022-10-31T13:40:27.014Z,30.87
2022-10-31T13:42:59.672Z,30.40
2022-10-31T13:45:28.275Z,29.60
2022-10-31T13:48:00.036Z,31.20
2022-10-31T13:50:29.692Z,29.50
2022-10-31T13:53:14.092Z,30.73
2022-10-31T13:55:43.099Z,29.80
2022-10-31T13:58:24.030Z,31.57
2022-10-31T14:01:04.408Z,31.60
2022-10-31T14:04:02.135Z,31.93
2022-10-31T14:06:20.856Z,34.30
2022-10-31T14:08:50.147Z,34.37
2022-10-31T14:11:22.896Z,33.50
2022-10-31T14:13:51.919Z,33.50
2022-10-31T14:16:22.580Z,34.30
2022-10-31T14:18:52.418Z,34.20
2022-10-31T14:21:29.313Z,34.97
2022-10-31T14:23:57.603Z,34.10
2022-10-31T14:26:38.035Z,35.60
2022-10-31T14:29:25.610Z,35.77
2022-10-31T14:31:56.175Z,35.20
2022-10-31T14:34:28.810Z,34.00
2022-10-31T14:37:16.284Z,36.57
2022-10-31T14:39:49.512Z,35.30
2022-10-31T14:42:25.686Z,34.33
2022-10-31T14:45:10.300Z,34.60
2022-10-31T14:47:44.108Z,35.20
2022-10-31T14:50:26.550Z,36.67
2022-10-31T14:52:56.665Z,36.80
2022-10-31T14:55:25.253Z,36.70
2022-10-31T14:57:54.565Z,39.27
2022-10-31T15:00:23.609Z,37.00
2022-10-31T15:02:58.885Z,36.50
2022-10-31T15:05:29.073Z,39.37
2022-10-31T15:07:57.778Z,41.37
2022-10-31T15:10:26.804Z,41.43
2022-10-31T15:12:54.936Z,43.03
2022-10-31T15:15:23.837Z,42.97
2022-10-31T15:17:54.603Z,46.87
2022-10-31T15:20:24.361Z,49.90
2022-10-31T15:22:52.321Z,48.93
2022-10-31T15:25:21.188Z,49.43
2022-10-31T15:27:50.208Z,50.20
2022-10-31T15:30:19.111Z,49.13
2022-10-31T15:32:57.213Z,50.50
2022-10-31T15:35:27.643Z,50.63
2022-10-31T15:37:55.330Z,48.20
2022-10-31T15:40:24.973Z,50.80
2022-10-31T15:42:53.613Z,52.47
2022-10-31T15:45:23.244Z,54.17
2022-10-31T15:47:55.555Z,54.43
2022-10-31T15:50:25.345Z,50.90
2022-10-31T15:52:54.478Z,49.97
2022-10-31T15:55:23.467Z,51.70
2022-10-31T15:57:52.284Z,51.37
2022-10-31T16:00:24.360Z,52.00
2022-10-31T16:02:52.089Z,51.80
2022-10-31T16:05:20.981Z,50.90
2022-10-31T16:07:50.791Z,51.63
2022-10-31T16:10:29.123Z,50.13
2022-10-31T16:12:56.863Z,50.50
2022-10-31T16:15:24.452Z,50.10
2022-10-31T16:17:54.870Z,47.93
2022-10-31T16:20:28.293Z,50.53
2022-10-31T16:22:57.090Z,51.60
2022-10-31T16:25:27.850Z,51.13
2022-10-31T16:28:00.971Z,51.80
2022-10-31T16:30:34.271Z,51.43
2022-10-31T16:33:03.229Z,49.80
2022-10-31T16:35:34.552Z,51.30
2022-10-31T16:38:02.446Z,53.73
2022-10-31T16:40:30.170Z,52.77
2022-10-31T16:43:00.354Z,52.87
2022-10-31T16:45:29.749Z,58.43
2022-10-31T16:48:03.685Z,59.43
2022-10-31T16:50:31.649Z,64.33
2022-10-31T16:53:15.176Z,61.07
2022-10-31T16:55:47.219Z,57.17
2022-10-31T16:58:22.689Z,60.10
2022-10-31T17:00:50.407Z,56.23
2022-10-31T17:03:18.592Z,60.47
2022-10-31T17:05:46.239Z,56.60
2022-10-31T17:08:13.777Z,68.60
2022-10-31T17:10:42.167Z,63.00
2022-10-31T17:13:15.661Z,58.40
2022-10-31T17:15:46.342Z,57.97
2022-10-31T17:18:14.325Z,60.93
2022-10-31T17:20:42.183Z,56.77
2022-10-31T17:23:10.634Z,55.47
2022-10-31T17:25:38.166Z,53.20
2022-10-31T17:28:06.050Z,56.23
2022-10-31T17:30:34.371Z,61.90
2022-10-31T17:33:03.684Z,69.37
2022-10-31T17:35:31.867Z,60.30
2022-10-31T17:37:59.352Z,59.57
2022-10-31T17:40:27.082Z,53.07
2022-10-31T17:42:55.805Z,53.50
2022-10-31T17:45:24.298Z,55.30
2022-10-31T17:47:52.701Z,54.63
2022-10-31T17:53:09.301Z,54.57
2022-10-31T17:55:37.681Z,57.93
2022-10-31T17:58:05.748Z,55.13
2022-10-31T18:00:33.378Z,54.57
2022-10-31T18:03:02.809Z,56.60
2022-10-31T18:05:32.035Z,61.17
2022-10-31T18:08:03.868Z,54.77
2022-10-31T18:10:32.509Z,55.93
2022-10-31T18:13:00.503Z,56.97
2022-10-31T18:15:29.523Z,56.47
2022-10-31T18:17:57.221Z,58.80
2022-10-31T18:20:24.809Z,55.90
2022-10-31T18:22:53.691Z,59.70
2022-10-31T18:25:21.408Z,55.20
2022-10-31T18:27:48.930Z,56.13
2022-10-31T18:30:18.016Z,56.60
2022-10-31T18:32:45.659Z,64.80
2022-10-31T18:35:13.315Z,95.33
2022-10-31T18:37:40.856Z,61.00
2022-10-31T18:40:10.591Z,58.30
2022-10-31T18:42:38.647Z,56.57
2022-10-31T18:45:11.875Z,57.97
2022-10-31T18:47:54.565Z,55.90
2022-10-31T18:50:22.154Z,56.00
2022-10-31T18:52:49.736Z,54.80
2022-10-31T18:55:18.589Z,55.93
2022-10-31T18:57:46.577Z,54.53
2022-10-31T19:00:14.960Z,56.00
2022-10-31T19:02:42.538Z,56.90
2022-10-31T19:05:10.251Z,57.10
2022-10-31T19:07:37.950Z,57.47
2022-10-31T19:10:06.250Z,59.27
2022-10-31T19:12:35.299Z,55.57
2022-10-31T19:15:02.835Z,57.43
2022-10-31T19:17:30.676Z,57.77
2022-10-31T19:19:58.306Z,59.53
2022-10-31T19:22:26.598Z,61.93
2022-10-31T19:24:54.376Z,64.67
2022-10-31T19:27:21.895Z,56.70
2022-10-31T19:29:50.792Z,55.37
2022-10-31T19:32:18.837Z,65.33
2022-10-31T19:34:46.403Z,68.67
2022-10-31T19:37:14.320Z,65.30
2022-10-31T19:39:44.307Z,57.03
2022-10-31T19:42:12.245Z,59.67
2022-10-31T19:44:39.787Z,61.23
2022-10-31T19:47:08.678Z,56.87
2022-10-31T19:49:36.370Z,56.60
2022-10-31T19:52:04.115Z,54.80
2022-10-31T19:54:32.400Z,53.03
2022-10-31T19:56:59.962Z,56.80
2022-10-31T19:59:27.547Z,55.33
2022-10-31T20:01:55.491Z,52.20
2022-10-31T20:04:24.649Z,53.43
2022-10-31T20:06:52.353Z,54.70
2022-10-31T20:09:19.988Z,55.73
2022-10-31T20:11:47.944Z,62.10
2022-10-31T20:14:16.584Z,61.60
2022-10-31T20:16:45.491Z,56.27
2022-10-31T20:19:13.002Z,53.10
2022-10-31T20:21:42.372Z,53.40
2022-10-31T20:24:11.123Z,54.37
2022-10-31T20:26:39.534Z,53.97
2022-10-31T20:29:07.338Z,54.77
2022-10-31T20:31:36.922Z,51.83
2022-10-31T20:34:04.836Z,54.03
2022-10-31T20:36:32.510Z,52.77
2022-10-31T20:39:01.596Z,54.27
2022-10-31T20:41:29.123Z,55.60
2022-10-31T20:43:56.604Z,52.80
2022-10-31T20:46:25.178Z,86.83
2022-10-31T20:48:53.074Z,71.17
2022-10-31T20:51:22.001Z,57.30
2022-10-31T20:53:50.128Z,54.90
2022-10-31T20:56:19.827Z,54.70
2022-10-31T20:58:47.628Z,56.17
2022-10-31T21:01:16.271Z,56.60
2022-10-31T21:03:43.981Z,54.70
2022-10-31T21:06:11.876Z,56.20
2022-10-31T21:08:39.890Z,55.70
2022-10-31T21:11:08.569Z,57.33
2022-10-31T21:13:40.727Z,54.77
2022-10-31T21:16:10.497Z,56.37
2022-10-31T21:18:38.809Z,54.90
2022-10-31T21:21:08.393Z,54.23
2022-10-31T21:23:36.315Z,53.47
2022-10-31T21:26:07.413Z,56.67
2022-10-31T21:28:35.226Z,56.30
2022-10-31T21:31:06.233Z,53.20
2022-10-31T21:33:34.239Z,52.03
2022-10-31T21:36:01.750Z,54.20
2022-10-31T21:38:29.260Z,55.23
2022-10-31T21:41:02.425Z,53.83
2022-10-31T21:43:30.572Z,56.17
2022-10-31T21:46:04.232Z,54.40
2022-10-31T21:48:33.244Z,54.67
2022-10-31T21:51:03.227Z,55.57
2022-10-31T21:53:49.012Z,54.80
2022-10-31T21:56:16.625Z,55.63
2022-10-31T21:58:44.164Z,57.40
2022-10-31T22:01:13.398Z,56.37
2022-10-31T22:03:42.296Z,56.47
2022-10-31T22:06:10.878Z,57.30
2022-10-31T22:08:40.042Z,56.80
2022-10-31T22:11:08.420Z,57.57
2022-10-31T22:13:36.912Z,57.90
2022-10-31T22:16:05.034Z,61.70
2022-10-31T22:18:36.901Z,58.87
2022-10-31T22:21:06.060Z,62.33
2022-10-31T22:23:33.874Z,63.93
2022-10-31T22:26:03.318Z,61.03
2022-10-31T22:28:31.385Z,62.27
2022-10-31T22:30:59.914Z,59.07
2022-10-31T22:33:27.642Z,64.93
2022-10-31T22:35:57.178Z,62.67
2022-10-31T22:38:24.792Z,67.20
2022-10-31T22:40:56.547Z,65.70
2022-10-31T22:43:24.686Z,66.43
2022-10-31T22:45:55.530Z,67.50
2022-10-31T22:48:23.258Z,71.07
2022-10-31T22:50:51.899Z,66.67
2022-10-31T22:53:20.700Z,75.07
2022-10-31T22:55:50.230Z,77.30
2022-10-31T22:58:18.023Z,77.60
2022-10-31T23:00:45.734Z,84.50
2022-10-31T23:03:13.235Z,83.03
2022-10-31T23:05:41.003Z,85.07
2022-10-31T23:08:08.683Z,83.93
2022-10-31T23:10:41.516Z,83.67
2022-10-31T23:13:27.501Z,88.17
2022-10-31T23:15:55.403Z,84.07
2022-10-31T23:18:48.121Z,86.10
2022-10-31T23:21:30.678Z,88.17
2022-10-31T23:23:58.881Z,85.13
2022-10-31T23:26:45.726Z,84.30
2022-10-31T23:29:13.230Z,86.63
2022-10-31T23:31:40.765Z,86.20
2022-10-31T23:34:08.473Z,84.57
2022-10-31T23:36:36.288Z,89.63
2022-10-31T23:39:03.840Z,85.10
2022-10-31T23:41:32.867Z,87.47
2022-10-31T23:44:00.523Z,87.30
2022-10-31T23:46:28.911Z,84.43
2022-10-31T23:48:56.415Z,86.70
2022-10-31T23:51:24.140Z,87.50
2022-10-31T23:53:51.809Z,91.40
2022-10-31T23:56:19.261Z,85.77
2022-10-31T23:58:48.306Z,87.93
